KFOK/FOK METAR and TAF weather

Enter ICAO airport designator
Station Type Date Time Source
KFOK METAR 2022/12/05 13:53 UTC NOAA

KFOK 051353Z 00000KT 10SM CLR 03/00 A3030 RMK AO2 SLP262 T00280000


Station Type Date Time Source
KFOK Decoded METAR 2022/12/05 13:53 UTC NOAA

THE GABRESKI AIRPORT, NY, United States (KFOK) 40-51N 072-37W 33M
Dec 05, 2022 - 08:53 AM EST / 2022.12.05 1353 UTC
Wind: Calm:0
Visibility: 10 mile(s):0
Sky conditions: clear
Temperature: 37.0 F (2.8 C)
Dew Point: 32.0 F (0.0 C)
Relative Humidity: 81%
Pressure (altimeter): 30.3 in. Hg (1026 hPa)
ob: KFOK 051353Z 00000KT 10SM CLR 03/00 A3030 RMK AO2 SLP262 T00280000
cycle: 14

Station Type Date Time Source
KFOK TAF UTC NOAA

Error!

Example: see airport list